deformed-offering

Nearby METAR Reports

 

KNUQ - Moffett Nas/Mtn, California, USA
Distance from station: N 9mi, 14km
Updated: Sun, 20-May-2018 1:56pm PDT
Few Clouds
Few Clouds
 Wind from WSW
Wind: WSW 10 mph , 17 km/h, Gust: 21 mph , 33 km/h
Temperature: 63°F , 17°C
Dew Point: 46°F , 8°C
Humidity: 56%
Barometer: 29.99 inHg , 1015.6 hPa
Clouds: Few Clouds
Visibility: 10 miles , 16 km
Cloud details: Few Clouds 3300 ft
2018/05/20 20:56 KNUQ 202056Z 24009G18KT 220V280 10SM FEW033 17/08 A2999 RMK AO2 SLP157 T01720078 58010
KSJC - San Jose, California, USA
Distance from station: NE 9mi, 14km
Updated: Sun, 20-May-2018 1:53pm PDT
Mostly Cloudy
Mostly Cloudy
 Wind from W
Wind: W 9 mph , 15 km/h
Temperature: 66°F , 19°C
Dew Point: 46°F , 8°C
Humidity: 49%
Barometer: 29.98 inHg , 1015.2 hPa
Clouds: Mostly Cloudy
Visibility: 10 miles , 16 km
Cloud details: Few Clouds 3200 ft
Partly Cloudy 12000 ft
Mostly Cloudy 16000 ft
2018/05/20 20:53 KSJC 202053Z 28008KT 10SM FEW032 SCT120 BKN160 19/08 A2998 RMK AO2 SLP150 T01890078 58013 $
 
KRHV - San Jose/Reid, California, USA
Distance from station: ENE 12mi, 19km
Updated: Sun, 20-May-2018 1:47pm PDT
Mostly Cloudy
Mostly Cloudy
 Wind from NW
Wind: NW 15 mph , 24 km/h
Temperature: 68°F , 20°C
Dew Point: 46°F , 8°C
Humidity: 46%
Barometer: 29.96 inHg , 1014.6 hPa
Clouds: Mostly Cloudy
Visibility: 10 miles , 16 km
Cloud details: Partly Cloudy 4000 ft
Mostly Cloudy 14000 ft
2018/05/20 20:47 KRHV 202047Z 32013KT 10SM SCT040 BKN140 20/08 A2996
KPAO - Palo Alto, California, USA
Distance from station: NNW 14mi, 23km
Updated: Sun, 20-May-2018 12:47pm PDT
NOT Current
Mostly Cloudy
Mostly Cloudy
 Wind from WNW
Wind: WNW 12 mph , 19 km/h
Barometer: 30.00 inHg , 1015.9 hPa
Clouds: Mostly Cloudy
Visibility: 10 miles , 16 km
Cloud details: Mostly Cloudy 3000 ft
2018/05/20 19:47 KPAO 201947Z 29010KT 10SM BKN030 A3000
 
KSQL - San Carlos Airpo, California, USA
Distance from station: NW 21mi, 34km
Updated: Sun, 20-May-2018 1:47pm PDT
Mostly Cloudy
Mostly Cloudy
 Wind from WSW
Wind: WSW 14 mph , 22 km/h
Temperature: 61°F , 16°C
Dew Point: 46°F , 8°C
Humidity: 59%
Barometer: 29.99 inHg , 1015.6 hPa
Clouds: Mostly Cloudy
Visibility: 10 miles , 16 km
Cloud details: Mostly Cloudy 2600 ft
2018/05/20 20:47 KSQL 202047Z 25012KT 10SM BKN026 16/08 A2999
KE16 - San Martin, California, USA
Distance from station: ESE 27mi, 43km
Updated: Sun, 20-May-2018 1:55pm PDT
Clear
Clear
 Wind from NNW
Wind: NNW 13 mph , 20 km/h, Gust: 18 mph , 30 km/h
Temperature: 68°F , 20°C
Dew Point: 45°F , 7°C
Humidity: 43%
Barometer: 29.97 inHg , 1014.9 hPa
Clouds: Clear
Visibility: 10 miles , 16 km
2018/05/20 20:55 KE16 202055Z AUTO 33011G16KT 310V010 10SM CLR 20/07 A2997 RMK AO2
 
KWVI - Watsonville, California, USA
Distance from station: SSE 27mi, 44km
Updated: Sun, 20-May-2018 1:53pm PDT
Clear
Clear
 Wind from SW
Wind: SW 13 mph , 20 km/h
Temperature: 64°F , 18°C
Dew Point: 48°F , 9°C
Humidity: 56%
Barometer: 29.99 inHg , 1015.6 hPa
Clouds: Clear
Visibility: 8 miles , 13 km
2018/05/20 20:53 KWVI 202053Z AUTO 23011KT 8SM CLR 18/09 A2999 RMK AO2 SLP155 T01780094 58009
KHWD - Hayward, California, USA
Distance from station: N 28mi, 44km
Updated: Sun, 20-May-2018 1:54pm PDT
Mostly Cloudy
Mostly Cloudy
 Wind from W
Wind: W 18 mph , 30 km/h, Gust: 24 mph , 39 km/h
Temperature: 61°F , 16°C
Dew Point: 46°F , 8°C
Humidity: 59%
Barometer: 29.99 inHg , 1015.6 hPa
Clouds: Mostly Cloudy
Visibility: 10 miles , 16 km
Cloud details: Partly Cloudy 2200 ft
Mostly Cloudy 2600 ft
2018/05/20 20:54 KHWD 202054Z 26016G21KT 10SM SCT022 BKN026 16/08 A2999 RMK AO2 SLP164 T01560083 58006
 
KSFO - San Francisco, California, USA
Distance from station: NW 30mi, 49km
Updated: Sun, 20-May-2018 1:56pm PDT
Mostly Cloudy
Mostly Cloudy
 Wind from W
Wind: W 22 mph , 35 km/h, Gust: 37 mph , 59 km/h
Temperature: 61°F , 16°C
Dew Point: 45°F , 7°C
Humidity: 55%
Barometer: 29.97 inHg , 1014.9 hPa
Clouds: Mostly Cloudy
Visibility: 10 miles , 16 km
Cloud details: Few Clouds 2300 ft
Mostly Cloudy 20000 ft
2018/05/20 20:56 KSFO 202056Z 26019G32KT 10SM FEW023 BKN200 16/07 A2997 RMK AO2 PK WND 27033/2019 SLP149 T01560072 58008
KHAF - Half Moon Bay, California, USA
Distance from station: WNW 31mi, 50km
Updated: Sun, 20-May-2018 1:55pm PDT
Overcast
Overcast
 Wind from NW
Wind: NW 14 mph , 22 km/h
Temperature: 57°F , 14°C
Dew Point: 48°F , 9°C
Humidity: 72%
Barometer: 30.02 inHg , 1016.6 hPa
Clouds: Overcast
Visibility: 7 miles , 11 km
Cloud details: Overcast 2300 ft
2018/05/20 20:55 KHAF 202055Z AUTO 31012KT 7SM OVC023 14/09 A3002 RMK AO2
 
KOAK - Oakland, California, USA
Distance from station: NNW 31mi, 50km
Updated: Sun, 20-May-2018 1:53pm PDT
Mostly Cloudy
Mostly Cloudy
 Wind from WSW
Wind: WSW 17 mph , 28 km/h
Temperature: 61°F , 16°C
Dew Point: 48°F , 9°C
Humidity: 63%
Barometer: 29.98 inHg , 1015.2 hPa
Clouds: Mostly Cloudy
Visibility: 9 miles , 14 km
Cloud details: Partly Cloudy 2300 ft
Mostly Cloudy 20000 ft
2018/05/20 20:53 KOAK 202053Z 25015KT 9SM SCT023 BKN200 16/09 A2998 RMK AO2 SLP151 T01560094 58005
KLVK - Livermore, California, USA
Distance from station: NNE 31mi, 51km
Updated: Sun, 20-May-2018 1:53pm PDT
Clear
Clear
 Wind from WSW
Wind: WSW 16 mph , 26 km/h
Temperature: 63°F , 17°C
Dew Point: 50°F , 10°C
Humidity: 64%
Barometer: 29.95 inHg , 1014.2 hPa
Clouds: Clear
Visibility: 10 miles , 16 km
2018/05/20 20:53 KLVK 202053Z 25014KT 10SM CLR 17/10 A2995 RMK AO2 SLP142 T01720100 58009
 
KCVH - Hollister Muni, California, USA
Distance from station: SE 42mi, 68km
Updated: Sun, 20-May-2018 1:55pm PDT
Clear
Clear
 Wind from SW
Wind: SW 16 mph , 26 km/h, Gust: 24 mph , 39 km/h
Temperature: 64°F , 18°C
Dew Point: 48°F , 9°C
Humidity: 56%
Barometer: 29.96 inHg , 1014.6 hPa
Clouds: Clear
Visibility: 10 miles , 16 km
2018/05/20 20:55 KCVH 202055Z AUTO 22014G21KT 10SM CLR 18/09 A2996 RMK A01
KSNS - Salinas, California, USA
Distance from station: SSE 48mi, 77km
Updated: Sun, 20-May-2018 1:53pm PDT
Overcast
Overcast
 Wind from W
Wind: W 17 mph , 28 km/h, Gust: 24 mph , 39 km/h
Temperature: 61°F , 16°C
Dew Point: 46°F , 8°C
Humidity: 59%
Barometer: 30.01 inHg , 1016.3 hPa
Clouds: Overcast
Visibility: 10 miles , 16 km
Cloud details: Overcast 2600 ft
2018/05/20 20:53 KSNS 202053Z AUTO 28015G21KT 10SM OVC026 16/08 A3001 RMK AO2 SLP170 T01610083 58006
 
KMRY - Monterey, California, USA
Distance from station: SSE 49mi, 78km
Updated: Wed, 31-Dec-1969 4:00pm PST
NOT Current
unable to load KMRY data RC=404 Not Found
unable to load KMRY data RC=404 Not Found
 
KCCR - Concord, California, USA
Distance from station: N 50mi, 81km
Updated: Sun, 20-May-2018 1:53pm PDT
Clear
Clear
 Wind from SSW
Wind: SSW 17 mph , 28 km/h, Gust: 26 mph , 43 km/h
Temperature: 70°F , 21°C
Dew Point: 48°F , 9°C
Humidity: 46%
Barometer: 29.93 inHg , 1013.5 hPa
Clouds: Clear
Visibility: 10 miles , 16 km
2018/05/20 20:53 KCCR 202053Z 20015G23KT 10SM CLR 21/09 A2993 RMK AO2 SLP120 T02060089 58012
deformed-offering